sensor_id;sensor_type;location;lat;lon;timestamp;pressure;altitude;pressure_sealevel;temperature;humidity
10135;BME280;5107;48.850;8.924;2023-10-31T00:00:28;95272.19;;;11.59;97.57
10135;BME280;5107;48.850;8.924;2023-10-31T00:02:53;95270.19;;;11.55;96.29
10135;BME280;5107;48.850;8.924;2023-10-31T00:05:19;95272.63;;;11.50;95.71
10135;BME280;5107;48.850;8.924;2023-10-31T00:07:44;95277.75;;;11.45;95.45
10135;BME280;5107;48.850;8.924;2023-10-31T00:10:09;95288.47;;;11.43;95.72
10135;BME280;5107;48.850;8.924;2023-10-31T00:12:35;95279.16;;;11.40;95.58
10135;BME280;5107;48.850;8.924;2023-10-31T00:15:00;95288.09;;;11.39;96.13
10135;BME280;5107;48.850;8.924;2023-10-31T00:17:25;95281.19;;;11.38;96.21
10135;BME280;5107;48.850;8.924;2023-10-31T00:19:51;95293.59;;;11.38;95.55
10135;BME280;5107;48.850;8.924;2023-10-31T00:22:16;95296.44;;;11.36;95.66
10135;BME280;5107;48.850;8.924;2023-10-31T00:24:42;95299.88;;;11.30;95.14
10135;BME280;5107;48.850;8.924;2023-10-31T00:27:08;95305.78;;;11.26;94.98
10135;BME280;5107;48.850;8.924;2023-10-31T00:29:33;95318.78;;;11.21;94.71
10135;BME280;5107;48.850;8.924;2023-10-31T00:31:58;95318.97;;;11.19;95.37
10135;BME280;5107;48.850;8.924;2023-10-31T00:34:24;95311.28;;;11.18;94.62
10135;BME280;5107;48.850;8.924;2023-10-31T00:36:49;95305.41;;;11.16;95.38
10135;BME280;5107;48.850;8.924;2023-10-31T00:39:15;95317.97;;;11.20;94.65
10135;BME280;5107;48.850;8.924;2023-10-31T00:41:44;95321.41;;;11.14;93.37
10135;BME280;5107;48.850;8.924;2023-10-31T00:44:10;95320.25;;;11.03;91.85
10135;BME280;5107;48.850;8.924;2023-10-31T00:46:35;95325.94;;;10.94;89.60
10135;BME280;5107;48.850;8.924;2023-10-31T00:49:01;95328.34;;;10.89;88.42
10135;BME280;5107;48.850;8.924;2023-10-31T00:51:26;95327.97;;;10.85;88.16
10135;BME280;5107;48.850;8.924;2023-10-31T00:53:52;95331.00;;;10.89;88.72
10135;BME280;5107;48.850;8.924;2023-10-31T00:56:17;95337.06;;;10.89;88.29
10135;BME280;5107;48.850;8.924;2023-10-31T00:58:43;95339.13;;;10.87;88.51
10135;BME280;5107;48.850;8.924;2023-10-31T01:01:08;95329.81;;;10.78;87.46
10135;BME280;5107;48.850;8.924;2023-10-31T01:03:33;95342.56;;;10.75;88.28
10135;BME280;5107;48.850;8.924;2023-10-31T01:05:59;95343.19;;;10.70;87.85
10135;BME280;5107;48.850;8.924;2023-10-31T01:08:24;95341.13;;;10.72;88.80
10135;BME280;5107;48.850;8.924;2023-10-31T01:10:49;95343.78;;;10.65;88.79
10135;BME280;5107;48.850;8.924;2023-10-31T01:13:15;95341.78;;;10.61;88.04
10135;BME280;5107;48.850;8.924;2023-10-31T01:15:40;95332.47;;;10.52;87.93
10135;BME280;5107;48.850;8.924;2023-10-31T01:18:05;95329.03;;;10.45;87.94
10135;BME280;5107;48.850;8.924;2023-10-31T01:20:31;95325.19;;;10.41;87.98
10135;BME280;5107;48.850;8.924;2023-10-31T01:22:56;95322.38;;;10.36;87.99
10135;BME280;5107;48.850;8.924;2023-10-31T01:25:22;95325.59;;;10.31;88.49
10135;BME280;5107;48.850;8.924;2023-10-31T01:27:47;95330.03;;;10.31;88.77
10135;BME280;5107;48.850;8.924;2023-10-31T01:30:13;95321.16;;;10.32;88.78
10135;BME280;5107;48.850;8.924;2023-10-31T01:32:38;95322.38;;;10.29;88.98
10135;BME280;5107;48.850;8.924;2023-10-31T01:35:04;95328.84;;;10.26;88.53
10135;BME280;5107;48.850;8.924;2023-10-31T01:37:30;95353.69;;;10.24;88.36
10135;BME280;5107;48.850;8.924;2023-10-31T01:39:55;95352.88;;;10.23;88.72
10135;BME280;5107;48.850;8.924;2023-10-31T01:42:20;95369.66;;;10.22;87.89
10135;BME280;5107;48.850;8.924;2023-10-31T01:44:46;95365.66;;;10.26;87.49
10135;BME280;5107;48.850;8.924;2023-10-31T01:47:11;95370.47;;;10.30;88.26
10135;BME280;5107;48.850;8.924;2023-10-31T01:49:36;95368.06;;;10.28;87.89
10135;BME280;5107;48.850;8.924;2023-10-31T01:52:06;95375.97;;;10.35;87.28
10135;BME280;5107;48.850;8.924;2023-10-31T01:54:33;95373.72;;;10.38;87.01
10135;BME280;5107;48.850;8.924;2023-10-31T01:56:59;95368.28;;;10.40;87.40
10135;BME280;5107;48.850;8.924;2023-10-31T01:59:26;95373.53;;;10.46;86.98
10135;BME280;5107;48.850;8.924;2023-10-31T02:01:52;95374.75;;;10.50;86.63
10135;BME280;5107;48.850;8.924;2023-10-31T02:04:17;95368.28;;;10.53;86.83
10135;BME280;5107;48.850;8.924;2023-10-31T02:06:43;95381.81;;;10.56;87.02
10135;BME280;5107;48.850;8.924;2023-10-31T02:09:08;95395.59;;;10.52;87.04
10135;BME280;5107;48.850;8.924;2023-10-31T02:11:34;95387.91;;;10.50;87.22
10135;BME280;5107;48.850;8.924;2023-10-31T02:14:01;95398.22;;;10.52;87.28
10135;BME280;5107;48.850;8.924;2023-10-31T02:16:26;95389.13;;;10.54;87.84
10135;BME280;5107;48.850;8.924;2023-10-31T02:18:51;95388.91;;;10.56;87.71
10135;BME280;5107;48.850;8.924;2023-10-31T02:21:19;95387.72;;;10.52;88.04
10135;BME280;5107;48.850;8.924;2023-10-31T02:24:00;95393.56;;;10.54;88.61
10135;BME280;5107;48.850;8.924;2023-10-31T02:26:33;95396.00;;;10.49;88.44
10135;BME280;5107;48.850;8.924;2023-10-31T02:29:00;95408.53;;;10.47;88.85
10135;BME280;5107;48.850;8.924;2023-10-31T02:31:26;95414.41;;;10.42;89.12
10135;BME280;5107;48.850;8.924;2023-10-31T02:33:52;95423.28;;;10.41;89.20
10135;BME280;5107;48.850;8.924;2023-10-31T02:36:18;95408.94;;;10.44;89.42
10135;BME280;5107;48.850;8.924;2023-10-31T02:38:44;95410.34;;;10.40;89.58
10135;BME280;5107;48.850;8.924;2023-10-31T02:41:09;95416.03;;;10.37;89.41
10135;BME280;5107;48.850;8.924;2023-10-31T02:43:35;95410.75;;;10.37;90.28
10135;BME280;5107;48.850;8.924;2023-10-31T02:46:00;95411.97;;;10.34;90.68
10135;BME280;5107;48.850;8.924;2023-10-31T02:48:26;95415.41;;;10.35;89.38
10135;BME280;5107;48.850;8.924;2023-10-31T02:50:51;95410.16;;;10.35;89.11
10135;BME280;5107;48.850;8.924;2023-10-31T02:53:20;95416.59;;;10.39;88.95
10135;BME280;5107;48.850;8.924;2023-10-31T02:55:45;95413.78;;;10.40;88.13
10135;BME280;5107;48.850;8.924;2023-10-31T02:58:10;95417.84;;;10.43;87.47
10135;BME280;5107;48.850;8.924;2023-10-31T03:00:36;95417.44;;;10.46;87.39
10135;BME280;5107;48.850;8.924;2023-10-31T03:03:02;95414.59;;;10.41;87.54
10135;BME280;5107;48.850;8.924;2023-10-31T03:05:27;95421.06;;;10.38;87.55
10135;BME280;5107;48.850;8.924;2023-10-31T03:07:52;95427.75;;;10.41;87.39
10135;BME280;5107;48.850;8.924;2023-10-31T03:10:19;95429.97;;;10.44;86.22
10135;BME280;5107;48.850;8.924;2023-10-31T03:15:15;95438.69;;;10.51;86.83
10135;BME280;5107;48.850;8.924;2023-10-31T03:17:41;95446.38;;;10.52;86.21
10135;BME280;5107;48.850;8.924;2023-10-31T03:20:07;95445.97;;;10.55;86.62
10135;BME280;5107;48.850;8.924;2023-10-31T03:22:33;95442.94;;;10.52;86.48
10135;BME280;5107;48.850;8.924;2023-10-31T03:24:59;95445.16;;;10.48;87.04
10135;BME280;5107;48.850;8.924;2023-10-31T03:27:24;95451.03;;;10.44;86.22
10135;BME280;5107;48.850;8.924;2023-10-31T03:29:49;95453.41;;;10.39;84.85
10135;BME280;5107;48.850;8.924;2023-10-31T03:32:15;95458.47;;;10.40;85.53
10135;BME280;5107;48.850;8.924;2023-10-31T03:34:40;95446.75;;;10.36;84.41
10135;BME280;5107;48.850;8.924;2023-10-31T03:37:06;95459.91;;;10.36;84.36
10135;BME280;5107;48.850;8.924;2023-10-31T03:39:31;95454.84;;;10.35;84.24
10135;BME280;5107;48.850;8.924;2023-10-31T03:41:56;95462.72;;;10.35;84.76
10135;BME280;5107;48.850;8.924;2023-10-31T03:44:22;95463.72;;;10.34;85.21
10135;BME280;5107;48.850;8.924;2023-10-31T03:46:47;95464.34;;;10.29;85.32
10135;BME280;5107;48.850;8.924;2023-10-31T03:49:13;95466.75;;;10.31;85.63
10135;BME280;5107;48.850;8.924;2023-10-31T03:51:38;95471.41;;;10.29;84.52
10135;BME280;5107;48.850;8.924;2023-10-31T03:54:04;95474.44;;;10.25;84.13
10135;BME280;5107;48.850;8.924;2023-10-31T03:56:29;95483.72;;;10.21;84.79
10135;BME280;5107;48.850;8.924;2023-10-31T03:58:54;95482.50;;;10.17;83.71
10135;BME280;5107;48.850;8.924;2023-10-31T04:01:20;95478.59;;;10.13;84.81
10135;BME280;5107;48.850;8.924;2023-10-31T04:03:45;95484.06;;;10.12;85.05
10135;BME280;5107;48.850;8.924;2023-10-31T04:06:11;95475.75;;;10.08;84.35
10135;BME280;5107;48.850;8.924;2023-10-31T04:08:36;95465.44;;;10.07;85.89
10135;BME280;5107;48.850;8.924;2023-10-31T04:11:02;95465.44;;;10.00;85.77
10135;BME280;5107;48.850;8.924;2023-10-31T04:13:27;95482.19;;;9.99;85.67
10135;BME280;5107;48.850;8.924;2023-10-31T04:15:52;95474.69;;;9.96;86.04
10135;BME280;5107;48.850;8.924;2023-10-31T04:18:18;95467.22;;;9.93;86.29
10135;BME280;5107;48.850;8.924;2023-10-31T04:20:44;95478.94;;;9.90;86.97
10135;BME280;5107;48.850;8.924;2023-10-31T04:23:09;95468.03;;;9.87;86.60
10135;BME280;5107;48.850;8.924;2023-10-31T04:25:35;95465.59;;;9.85;86.64
10135;BME280;5107;48.850;8.924;2023-10-31T04:28:00;95458.91;;;9.83;85.89
10135;BME280;5107;48.850;8.924;2023-10-31T04:30:25;95477.28;;;9.83;85.15
10135;BME280;5107;48.850;8.924;2023-10-31T04:32:52;95476.09;;;9.85;85.12
10135;BME280;5107;48.850;8.924;2023-10-31T04:35:18;95478.91;;;9.84;83.45
10135;BME280;5107;48.850;8.924;2023-10-31T04:37:43;95485.16;;;9.83;83.37
10135;BME280;5107;48.850;8.924;2023-10-31T04:40:09;95483.72;;;9.80;83.37
10135;BME280;5107;48.850;8.924;2023-10-31T04:42:35;95483.13;;;9.78;83.26
10135;BME280;5107;48.850;8.924;2023-10-31T04:45:00;95475.81;;;9.74;84.00
10135;BME280;5107;48.850;8.924;2023-10-31T04:47:26;95480.28;;;9.73;84.38
10135;BME280;5107;48.850;8.924;2023-10-31T04:49:51;95481.69;;;9.69;84.21
10135;BME280;5107;48.850;8.924;2023-10-31T04:52:17;95486.31;;;9.67;83.86
10135;BME280;5107;48.850;8.924;2023-10-31T04:54:43;95491.13;;;9.64;84.55
10135;BME280;5107;48.850;8.924;2023-10-31T04:57:08;95494.97;;;9.61;85.12
10135;BME280;5107;48.850;8.924;2023-10-31T04:59:33;95489.50;;;9.63;85.24
10135;BME280;5107;48.850;8.924;2023-10-31T05:01:59;95493.34;;;9.60;85.03
10135;BME280;5107;48.850;8.924;2023-10-31T05:04:24;95488.66;;;9.56;85.54
10135;BME280;5107;48.850;8.924;2023-10-31T05:06:49;95486.22;;;9.54;85.50
10135;BME280;5107;48.850;8.924;2023-10-31T05:09:15;95491.44;;;9.47;85.34
10135;BME280;5107;48.850;8.924;2023-10-31T05:11:40;95496.50;;;9.49;85.10
10135;BME280;5107;48.850;8.924;2023-10-31T05:14:08;95506.19;;;9.48;84.81
10135;BME280;5107;48.850;8.924;2023-10-31T05:16:42;95498.13;;;9.50;84.22
10135;BME280;5107;48.850;8.924;2023-10-31T05:19:07;95511.88;;;9.52;84.87
10135;BME280;5107;48.850;8.924;2023-10-31T05:21:33;95517.72;;;9.54;84.94
10135;BME280;5107;48.850;8.924;2023-10-31T05:23:58;95517.78;;;9.61;85.07
10135;BME280;5107;48.850;8.924;2023-10-31T05:26:23;95518.78;;;9.60;84.39
10135;BME280;5107;48.850;8.924;2023-10-31T05:28:49;95520.16;;;9.56;84.52
10135;BME280;5107;48.850;8.924;2023-10-31T05:31:17;95520.75;;;9.51;84.40
10135;BME280;5107;48.850;8.924;2023-10-31T05:33:42;95518.47;;;9.41;85.26
10135;BME280;5107;48.850;8.924;2023-10-31T05:36:21;95518.25;;;9.36;85.13
10135;BME280;5107;48.850;8.924;2023-10-31T05:38:47;95517.22;;;9.37;85.26
10135;BME280;5107;48.850;8.924;2023-10-31T05:41:12;95521.47;;;9.38;84.52
10135;BME280;5107;48.850;8.924;2023-10-31T05:43:38;95518.25;;;9.36;84.52
10135;BME280;5107;48.850;8.924;2023-10-31T05:46:03;95516.44;;;9.37;84.28
10135;BME280;5107;48.850;8.924;2023-10-31T05:48:30;95525.72;;;9.39;84.55
10135;BME280;5107;48.850;8.924;2023-10-31T05:50:56;95524.09;;;9.38;83.83
10135;BME280;5107;48.850;8.924;2023-10-31T05:53:21;95521.25;;;9.33;84.10
10135;BME280;5107;48.850;8.924;2023-10-31T05:55:46;95538.63;;;9.34;84.41
10135;BME280;5107;48.850;8.924;2023-10-31T05:58:12;95545.09;;;9.38;84.40
10135;BME280;5107;48.850;8.924;2023-10-31T06:00:37;95533.41;;;9.41;83.14
10135;BME280;5107;48.850;8.924;2023-10-31T06:03:03;95533.22;;;9.42;82.64
10135;BME280;5107;48.850;8.924;2023-10-31T06:05:28;95537.47;;;9.43;82.10
10135;BME280;5107;48.850;8.924;2023-10-31T06:07:53;95546.97;;;9.44;81.86
10135;BME280;5107;48.850;8.924;2023-10-31T06:10:20;95551.41;;;9.44;81.14
10135;BME280;5107;48.850;8.924;2023-10-31T06:12:46;95543.56;;;9.50;79.53
10135;BME280;5107;48.850;8.924;2023-10-31T06:15:11;95549.25;;;9.54;80.18
10135;BME280;5107;48.850;8.924;2023-10-31T06:17:37;95556.34;;;9.54;80.33
10135;BME280;5107;48.850;8.924;2023-10-31T06:20:02;95557.78;;;9.63;79.50
10135;BME280;5107;48.850;8.924;2023-10-31T06:22:28;95555.41;;;9.68;79.27
10135;BME280;5107;48.850;8.924;2023-10-31T06:24:53;95556.44;;;9.73;78.96
10135;BME280;5107;48.850;8.924;2023-10-31T06:27:19;95566.56;;;9.76;78.77
10135;BME280;5107;48.850;8.924;2023-10-31T06:29:44;95566.59;;;9.83;78.62
10135;BME280;5107;48.850;8.924;2023-10-31T06:32:09;95571.88;;;9.83;78.12
10135;BME280;5107;48.850;8.924;2023-10-31T06:34:35;95582.56;;;9.81;78.25
10135;BME280;5107;48.850;8.924;2023-10-31T06:37:00;95580.56;;;9.83;78.70
10135;BME280;5107;48.850;8.924;2023-10-31T06:39:25;95590.06;;;9.84;78.96
10135;BME280;5107;48.850;8.924;2023-10-31T06:41:54;95593.50;;;9.85;79.00
10135;BME280;5107;48.850;8.924;2023-10-31T06:44:20;95585.22;;;9.88;78.89
10135;BME280;5107;48.850;8.924;2023-10-31T06:46:45;95590.03;;;9.78;78.70
10135;BME280;5107;48.850;8.924;2023-10-31T06:49:10;95584.53;;;9.73;79.30
10135;BME280;5107;48.850;8.924;2023-10-31T06:51:35;95594.03;;;9.74;79.90
10135;BME280;5107;48.850;8.924;2023-10-31T06:54:01;95603.16;;;9.78;80.02
10135;BME280;5107;48.850;8.924;2023-10-31T06:56:26;95608.81;;;9.81;79.50
10135;BME280;5107;48.850;8.924;2023-10-31T06:58:53;95614.25;;;9.80;79.73
10135;BME280;5107;48.850;8.924;2023-10-31T07:01:19;95623.41;;;9.84;80.05
10135;BME280;5107;48.850;8.924;2023-10-31T07:03:44;95623.03;;;9.87;79.95
10135;BME280;5107;48.850;8.924;2023-10-31T07:06:09;95629.50;;;9.91;79.37
10135;BME280;5107;48.850;8.924;2023-10-31T07:08:35;95640.66;;;9.93;79.11
10135;BME280;5107;48.850;8.924;2023-10-31T07:11:00;95639.25;;;9.97;79.57
10135;BME280;5107;48.850;8.924;2023-10-31T07:13:25;95639.66;;;9.94;79.71
10135;BME280;5107;48.850;8.924;2023-10-31T07:15:51;95641.69;;;9.99;80.26
10135;BME280;5107;48.850;8.924;2023-10-31T07:18:16;95642.31;;;10.01;80.12
10135;BME280;5107;48.850;8.924;2023-10-31T07:20:41;95641.31;;;10.02;79.93
10135;BME280;5107;48.850;8.924;2023-10-31T07:23:07;95649.19;;;10.02;79.90
10135;BME280;5107;48.850;8.924;2023-10-31T07:25:32;95647.97;;;10.04;79.89
10135;BME280;5107;48.850;8.924;2023-10-31T07:27:57;95650.59;;;10.04;80.52
10135;BME280;5107;48.850;8.924;2023-10-31T07:30:22;95645.41;;;10.11;79.95
10135;BME280;5107;48.850;8.924;2023-10-31T07:32:48;95651.06;;;10.14;79.47
10135;BME280;5107;48.850;8.924;2023-10-31T07:35:13;95661.09;;;10.25;80.21
10135;BME280;5107;48.850;8.924;2023-10-31T07:37:38;95659.84;;;10.21;80.51
10135;BME280;5107;48.850;8.924;2023-10-31T07:40:04;95656.63;;;10.19;80.86
10135;BME280;5107;48.850;8.924;2023-10-31T07:42:30;95660.94;;;10.34;81.44
10135;BME280;5107;48.850;8.924;2023-10-31T07:44:55;95666.56;;;10.31;80.15
10135;BME280;5107;48.850;8.924;2023-10-31T07:47:21;95662.56;;;10.35;81.08
10135;BME280;5107;48.850;8.924;2023-10-31T07:49:46;95661.16;;;10.39;80.77
10135;BME280;5107;48.850;8.924;2023-10-31T07:52:13;95666.47;;;10.45;81.56
10135;BME280;5107;48.850;8.924;2023-10-31T07:54:41;95670.31;;;10.49;81.18
10135;BME280;5107;48.850;8.924;2023-10-31T07:57:07;95676.38;;;10.50;80.86
10135;BME280;5107;48.850;8.924;2023-10-31T07:59:35;95673.41;;;10.59;80.69
10135;BME280;5107;48.850;8.924;2023-10-31T08:02:01;95678.06;;;10.64;80.99
10135;BME280;5107;48.850;8.924;2023-10-31T08:04:26;95680.28;;;10.60;80.60
10135;BME280;5107;48.850;8.924;2023-10-31T08:06:53;95684.31;;;10.63;80.25
10135;BME280;5107;48.850;8.924;2023-10-31T08:09:18;95688.00;;;10.62;79.93
10135;BME280;5107;48.850;8.924;2023-10-31T08:11:44;95690.41;;;10.63;80.30
10135;BME280;5107;48.850;8.924;2023-10-31T08:14:09;95688.22;;;10.67;80.85
10135;BME280;5107;48.850;8.924;2023-10-31T08:16:35;95696.72;;;10.69;80.66
10135;BME280;5107;48.850;8.924;2023-10-31T08:19:01;95705.06;;;10.79;81.72
10135;BME280;5107;48.850;8.924;2023-10-31T08:21:26;95698.19;;;10.78;80.83
10135;BME280;5107;48.850;8.924;2023-10-31T08:23:58;95708.09;;;10.83;80.69
10135;BME280;5107;48.850;8.924;2023-10-31T08:26:23;95710.09;;;10.74;80.43
10135;BME280;5107;48.850;8.924;2023-10-31T08:28:48;95707.88;;;10.71;80.45
10135;BME280;5107;48.850;8.924;2023-10-31T08:31:14;95709.34;;;10.87;79.93
10135;BME280;5107;48.850;8.924;2023-10-31T08:33:40;95707.38;;;10.95;78.80
10135;BME280;5107;48.850;8.924;2023-10-31T08:36:05;95711.03;;;11.08;78.85
10135;BME280;5107;48.850;8.924;2023-10-31T08:38:31;95715.91;;;11.11;77.43
10135;BME280;5107;48.850;8.924;2023-10-31T08:40:58;95719.38;;;11.18;78.10
10135;BME280;5107;48.850;8.924;2023-10-31T08:43:24;95716.75;;;11.31;77.96
10135;BME280;5107;48.850;8.924;2023-10-31T08:45:49;95726.16;;;11.53;76.37
10135;BME280;5107;48.850;8.924;2023-10-31T08:48:14;95724.97;;;11.69;75.43
10135;BME280;5107;48.850;8.924;2023-10-31T08:50:41;95722.72;;;11.72;74.66
10135;BME280;5107;48.850;8.924;2023-10-31T08:53:06;95735.34;;;11.77;74.84
10135;BME280;5107;48.850;8.924;2023-10-31T08:55:31;95727.03;;;11.93;74.58
10135;BME280;5107;48.850;8.924;2023-10-31T08:57:57;95740.22;;;12.00;74.83
10135;BME280;5107;48.850;8.924;2023-10-31T09:00:22;95732.72;;;12.03;73.19
10135;BME280;5107;48.850;8.924;2023-10-31T09:02:48;95739.59;;;12.24;72.31
10135;BME280;5107;48.850;8.924;2023-10-31T09:05:13;95736.34;;;12.09;70.72
10135;BME280;5107;48.850;8.924;2023-10-31T09:07:39;95734.13;;;12.06;71.52
10135;BME280;5107;48.850;8.924;2023-10-31T09:10:04;95732.50;;;11.98;72.25
10135;BME280;5107;48.850;8.924;2023-10-31T09:12:30;95734.75;;;12.21;72.78
10135;BME280;5107;48.850;8.924;2023-10-31T09:14:56;95736.94;;;12.50;70.36
10135;BME280;5107;48.850;8.924;2023-10-31T09:17:21;95737.97;;;12.36;69.80
10135;BME280;5107;48.850;8.924;2023-10-31T09:19:46;95724.13;;;12.47;69.41
10135;BME280;5107;48.850;8.924;2023-10-31T09:22:12;95730.31;;;12.92;67.78
10135;BME280;5107;48.850;8.924;2023-10-31T09:24:37;95728.28;;;13.46;65.30
10135;BME280;5107;48.850;8.924;2023-10-31T09:27:03;95726.16;;;13.23;66.57
10135;BME280;5107;48.850;8.924;2023-10-31T09:29:28;95740.75;;;13.70;65.17
10135;BME280;5107;48.850;8.924;2023-10-31T09:31:54;95738.19;;;13.88;64.85
10135;BME280;5107;48.850;8.924;2023-10-31T09:34:19;95723.34;;;14.12;63.26
10135;BME280;5107;48.850;8.924;2023-10-31T09:36:44;95733.91;;;14.62;62.44
10135;BME280;5107;48.850;8.924;2023-10-31T09:39:09;95728.03;;;14.35;62.42
10135;BME280;5107;48.850;8.924;2023-10-31T09:41:35;95742.31;;;14.95;63.46
10135;BME280;5107;48.850;8.924;2023-10-31T09:44:01;95743.28;;;15.01;61.08
10135;BME280;5107;48.850;8.924;2023-10-31T09:46:28;95746.34;;;14.36;61.81
10135;BME280;5107;48.850;8.924;2023-10-31T09:48:55;95745.44;;;13.68;63.93
10135;BME280;5107;48.850;8.924;2023-10-31T09:51:21;95737.38;;;13.12;65.30
10135;BME280;5107;48.850;8.924;2023-10-31T09:53:47;95743.94;;;12.89;66.27
10135;BME280;5107;48.850;8.924;2023-10-31T09:56:13;95744.94;;;12.95;67.52
10135;BME280;5107;48.850;8.924;2023-10-31T09:58:39;95733.75;;;13.00;67.75
10135;BME280;5107;48.850;8.924;2023-10-31T10:01:06;95746.00;;;12.74;67.44
10135;BME280;5107;48.850;8.924;2023-10-31T10:03:32;95744.44;;;12.53;69.06
10135;BME280;5107;48.850;8.924;2023-10-31T10:05:58;95741.22;;;12.38;69.80
10135;BME280;5107;48.850;8.924;2023-10-31T10:08:23;95739.78;;;12.36;70.37
10135;BME280;5107;48.850;8.924;2023-10-31T10:10:50;95732.91;;;12.28;70.60
10135;BME280;5107;48.850;8.924;2023-10-31T10:13:22;95734.13;;;12.12;71.07
10135;BME280;5107;48.850;8.924;2023-10-31T10:15:49;95734.13;;;12.19;72.06
10135;BME280;5107;48.850;8.924;2023-10-31T10:18:25;95730.69;;;12.12;72.18
10135;BME280;5107;48.850;8.924;2023-10-31T10:21:01;95745.88;;;12.23;72.24
10135;BME280;5107;48.850;8.924;2023-10-31T10:23:28;95742.25;;;12.37;71.48
10135;BME280;5107;48.850;8.924;2023-10-31T10:25:55;95739.19;;;12.34;71.43
10135;BME280;5107;48.850;8.924;2023-10-31T10:28:21;95752.34;;;12.40;72.44
10135;BME280;5107;48.850;8.924;2023-10-31T10:30:47;95752.97;;;12.62;71.67
10135;BME280;5107;48.850;8.924;2023-10-31T10:33:14;95747.44;;;12.77;71.46
10135;BME280;5107;48.850;8.924;2023-10-31T10:35:39;95749.91;;;12.72;70.29
10135;BME280;5107;48.850;8.924;2023-10-31T10:38:10;95754.50;;;12.89;71.15
10135;BME280;5107;48.850;8.924;2023-10-31T10:40:38;95752.25;;;12.93;70.47
10135;BME280;5107;48.850;8.924;2023-10-31T10:43:06;95754.88;;;13.00;69.88
10135;BME280;5107;48.850;8.924;2023-10-31T10:45:37;95756.22;;;13.28;68.87
10135;BME280;5107;48.850;8.924;2023-10-31T10:48:05;95744.47;;;13.56;68.38
10135;BME280;5107;48.850;8.924;2023-10-31T10:50:36;95746.34;;;13.55;67.77
10135;BME280;5107;48.850;8.924;2023-10-31T10:53:13;95756.00;;;13.68;66.71
10135;BME280;5107;48.850;8.924;2023-10-31T10:55:45;95758.88;;;13.28;67.61
10135;BME280;5107;48.850;8.924;2023-10-31T10:58:33;95752.72;;;13.35;68.76
10135;BME280;5107;48.850;8.924;2023-10-31T11:01:00;95742.06;;;13.54;67.97
10135;BME280;5107;48.850;8.924;2023-10-31T11:03:26;95743.38;;;13.39;67.64
10135;BME280;5107;48.850;8.924;2023-10-31T11:05:53;95750.41;;;13.13;67.65
10135;BME280;5107;48.850;8.924;2023-10-31T11:08:20;95749.91;;;13.29;67.78
10135;BME280;5107;48.850;8.924;2023-10-31T11:10:46;95745.59;;;13.73;67.25
10135;BME280;5107;48.850;8.924;2023-10-31T11:13:13;95751.84;;;13.85;66.23
10135;BME280;5107;48.850;8.924;2023-10-31T11:15:39;95747.69;;;13.96;65.38
10135;BME280;5107;48.850;8.924;2023-10-31T11:18:05;95746.84;;;14.52;64.32
10135;BME280;5107;48.850;8.924;2023-10-31T11:20:31;95750.75;;;14.67;63.29
10135;BME280;5107;48.850;8.924;2023-10-31T11:22:56;95748.56;;;14.39;62.94
10135;BME280;5107;48.850;8.924;2023-10-31T11:25:31;95758.16;;;14.34;63.40
10135;BME280;5107;48.850;8.924;2023-10-31T11:28:16;95755.72;;;14.32;63.33
10135;BME280;5107;48.850;8.924;2023-10-31T11:30:43;95769.22;;;14.31;63.93
10135;BME280;5107;48.850;8.924;2023-10-31T11:33:14;95761.47;;;14.29;64.12
10135;BME280;5107;48.850;8.924;2023-10-31T11:35:40;95776.53;;;14.29;64.45
10135;BME280;5107;48.850;8.924;2023-10-31T11:38:09;95780.25;;;13.96;63.98
10135;BME280;5107;48.850;8.924;2023-10-31T11:43:13;95775.88;;;13.46;66.16
10135;BME280;5107;48.850;8.924;2023-10-31T11:48:05;95779.63;;;13.18;66.31
10135;BME280;5107;48.850;8.924;2023-10-31T11:50:32;95787.31;;;13.26;67.38
10135;BME280;5107;48.850;8.924;2023-10-31T11:53:05;95790.94;;;13.32;67.53
10135;BME280;5107;48.850;8.924;2023-10-31T11:55:35;95792.84;;;13.18;67.08
10135;BME280;5107;48.850;8.924;2023-10-31T11:58:16;95785.31;;;13.22;67.14
10135;BME280;5107;48.850;8.924;2023-10-31T12:00:47;95786.75;;;13.56;67.03
10135;BME280;5107;48.850;8.924;2023-10-31T12:03:16;95778.84;;;13.56;65.81
10135;BME280;5107;48.850;8.924;2023-10-31T12:05:54;95787.69;;;13.37;66.12
10135;BME280;5107;48.850;8.924;2023-10-31T12:08:36;95792.88;;;13.56;66.83
10135;BME280;5107;48.850;8.924;2023-10-31T12:13:30;95795.25;;;13.64;65.70
10135;BME280;5107;48.850;8.924;2023-10-31T12:15:56;95790.66;;;13.53;65.85
10135;BME280;5107;48.850;8.924;2023-10-31T12:18:22;95789.25;;;13.51;66.44
10135;BME280;5107;48.850;8.924;2023-10-31T12:20:51;95791.31;;;13.42;67.19
10135;BME280;5107;48.850;8.924;2023-10-31T12:23:17;95787.66;;;13.43;67.81
10135;BME280;5107;48.850;8.924;2023-10-31T12:25:52;95793.66;;;13.19;68.03
10135;BME280;5107;48.850;8.924;2023-10-31T12:28:19;95799.00;;;12.86;68.41
10135;BME280;5107;48.850;8.924;2023-10-31T12:30:45;95797.78;;;12.88;69.23
10135;BME280;5107;48.850;8.924;2023-10-31T12:33:15;95798.38;;;12.84;69.91
10135;BME280;5107;48.850;8.924;2023-10-31T12:35:41;95796.97;;;12.88;68.76
10135;BME280;5107;48.850;8.924;2023-10-31T12:38:07;95799.00;;;12.86;69.27
10135;BME280;5107;48.850;8.924;2023-10-31T12:40:35;95807.94;;;12.85;68.86
10135;BME280;5107;48.850;8.924;2023-10-31T12:43:00;95808.53;;;12.87;69.46
10135;BME280;5107;48.850;8.924;2023-10-31T12:45:28;95811.78;;;12.82;69.18
10135;BME280;5107;48.850;8.924;2023-10-31T12:48:04;95801.53;;;13.25;69.50
10135;BME280;5107;48.850;8.924;2023-10-31T12:50:31;95818.75;;;13.86;68.16
10135;BME280;5107;48.850;8.924;2023-10-31T12:52:57;95809.56;;;13.95;65.87
10135;BME280;5107;48.850;8.924;2023-10-31T12:55:24;95804.88;;;13.90;65.82
10135;BME280;5107;48.850;8.924;2023-10-31T12:57:51;95810.88;;;14.11;65.98
10135;BME280;5107;48.850;8.924;2023-10-31T13:00:18;95809.94;;;14.23;65.20
10135;BME280;5107;48.850;8.924;2023-10-31T13:02:50;95812.81;;;13.97;65.04
10135;BME280;5107;48.850;8.924;2023-10-31T13:05:16;95808.47;;;14.02;66.13
10135;BME280;5107;48.850;8.924;2023-10-31T13:07:48;95812.81;;;13.97;66.23
10135;BME280;5107;48.850;8.924;2023-10-31T13:10:15;95807.78;;;13.82;66.35
10135;BME280;5107;48.850;8.924;2023-10-31T13:12:44;95811.84;;;13.47;66.07
10135;BME280;5107;48.850;8.924;2023-10-31T13:15:10;95827.78;;;13.20;67.00
10135;BME280;5107;48.850;8.924;2023-10-31T13:17:36;95820.25;;;13.31;67.56